Terminal Aerodrome Forecast
Issued by NWS Jackson, MS

Home | Current Version | Previous Version | Text Only | Print | Product List | Glossary On
Versions: 1 2 3 4 5 6 7 8 9 10 11 12 13 14 15 16 17
426
FTUS44 KJAN 291120
TAFJAN
TAF
KJAN 291120Z 2912/3012 15006KT P6SM SHRA BKN015 OVC100
     FM291500 15010KT P6SM VCTS SCT025CB BKN050
     FM292100 16010KT P6SM VCSH SCT025 BKN050
     FM300100 16006KT P6SM BKN025 OVC060=

USA.gov is the U.S. government's official web portal to all federal, state and local government web resources and services.